sensor_id;sensor_type;location;lat;lon;timestamp;pressure;altitude;pressure_sealevel;temperature;humidity
30081;BME280;16902;50.816;12.828;2022-07-23T00:02:41;97877.59;;;16.62;100.00
30081;BME280;16902;50.816;12.828;2022-07-23T00:07:43;97888.25;;;16.67;100.00
30081;BME280;16902;50.816;12.828;2022-07-23T00:12:45;97880.97;;;16.94;100.00
30081;BME280;16902;50.816;12.828;2022-07-23T00:17:52;97881.88;;;17.07;100.00
30081;BME280;16902;50.816;12.828;2022-07-23T00:22:54;97879.59;;;17.10;100.00
30081;BME280;16902;50.816;12.828;2022-07-23T00:28:00;97868.22;;;17.16;100.00
30081;BME280;16902;50.816;12.828;2022-07-23T00:33:06;97853.66;;;17.32;100.00
30081;BME280;16902;50.816;12.828;2022-07-23T00:38:09;97843.84;;;17.39;100.00
30081;BME280;16902;50.816;12.828;2022-07-23T00:43:11;97844.22;;;17.43;100.00
30081;BME280;16902;50.816;12.828;2022-07-23T00:48:13;97831.97;;;17.37;100.00
30081;BME280;16902;50.816;12.828;2022-07-23T00:53:15;97838.38;;;17.41;100.00
30081;BME280;16902;50.816;12.828;2022-07-23T00:58:17;97834.72;;;17.42;100.00
30081;BME280;16902;50.816;12.828;2022-07-23T01:03:20;97819.00;;;17.35;100.00
30081;BME280;16902;50.816;12.828;2022-07-23T01:08:21;97816.38;;;17.35;100.00
30081;BME280;16902;50.816;12.828;2022-07-23T01:13:23;97804.25;;;17.34;100.00
30081;BME280;16902;50.816;12.828;2022-07-23T01:18:25;97790.50;;;17.32;100.00
30081;BME280;16902;50.816;12.828;2022-07-23T01:23:27;97795.97;;;17.31;100.00
30081;BME280;16902;50.816;12.828;2022-07-23T01:28:31;97792.50;;;17.18;100.00
30081;BME280;16902;50.816;12.828;2022-07-23T01:33:34;97779.19;;;17.13;100.00
30081;BME280;16902;50.816;12.828;2022-07-23T01:38:36;97770.38;;;17.08;100.00
30081;BME280;16902;50.816;12.828;2022-07-23T01:43:39;97763.94;;;17.04;100.00
30081;BME280;16902;50.816;12.828;2022-07-23T01:48:42;97751.81;;;17.03;100.00
30081;BME280;16902;50.816;12.828;2022-07-23T01:54:03;97745.97;;;17.01;100.00
30081;BME280;16902;50.816;12.828;2022-07-23T01:59:05;97752.53;;;16.91;100.00
30081;BME280;16902;50.816;12.828;2022-07-23T02:04:07;97751.59;;;16.86;100.00
30081;BME280;16902;50.816;12.828;2022-07-23T02:09:08;97750.88;;;16.79;100.00
30081;BME280;16902;50.816;12.828;2022-07-23T02:14:10;97749.47;;;16.76;100.00
30081;BME280;16902;50.816;12.828;2022-07-23T02:19:12;97748.13;;;16.67;100.00
30081;BME280;16902;50.816;12.828;2022-07-23T02:24:13;97763.38;;;16.58;100.00
30081;BME280;16902;50.816;12.828;2022-07-23T02:29:16;97748.88;;;16.56;100.00
30081;BME280;16902;50.816;12.828;2022-07-23T02:34:17;97752.66;;;16.60;100.00
30081;BME280;16902;50.816;12.828;2022-07-23T02:39:19;97747.59;;;16.58;100.00
30081;BME280;16902;50.816;12.828;2022-07-23T02:44:22;97761.59;;;16.59;100.00
30081;BME280;16902;50.816;12.828;2022-07-23T02:49:26;97743.84;;;16.54;100.00
30081;BME280;16902;50.816;12.828;2022-07-23T02:54:28;97746.09;;;16.51;100.00
30081;BME280;16902;50.816;12.828;2022-07-23T02:59:31;97741.06;;;16.49;100.00
30081;BME280;16902;50.816;12.828;2022-07-23T03:04:32;97731.47;;;16.36;100.00
30081;BME280;16902;50.816;12.828;2022-07-23T03:09:34;97751.72;;;16.29;100.00
30081;BME280;16902;50.816;12.828;2022-07-23T03:14:36;97739.59;;;16.35;100.00
30081;BME280;16902;50.816;12.828;2022-07-23T03:19:38;97731.69;;;16.35;100.00
30081;BME280;16902;50.816;12.828;2022-07-23T03:24:44;97743.97;;;16.41;100.00
30081;BME280;16902;50.816;12.828;2022-07-23T03:30:01;97751.63;;;16.42;100.00
30081;BME280;16902;50.816;12.828;2022-07-23T03:35:04;97752.00;;;16.46;100.00
30081;BME280;16902;50.816;12.828;2022-07-23T03:40:09;97758.06;;;16.47;100.00
30081;BME280;16902;50.816;12.828;2022-07-23T03:45:10;97746.25;;;16.56;100.00
30081;BME280;16902;50.816;12.828;2022-07-23T03:50:12;97740.31;;;16.60;100.00
30081;BME280;16902;50.816;12.828;2022-07-23T03:55:14;97725.94;;;16.63;100.00
30081;BME280;16902;50.816;12.828;2022-07-23T04:00:16;97729.72;;;16.67;100.00
30081;BME280;16902;50.816;12.828;2022-07-23T04:05:19;97733.34;;;16.73;100.00
30081;BME280;16902;50.816;12.828;2022-07-23T04:10:25;97739.25;;;16.86;100.00
30081;BME280;16902;50.816;12.828;2022-07-23T04:15:27;97729.34;;;16.88;100.00
30081;BME280;16902;50.816;12.828;2022-07-23T04:20:29;97754.22;;;17.04;100.00
30081;BME280;16902;50.816;12.828;2022-07-23T04:25:34;97762.81;;;17.11;100.00
30081;BME280;16902;50.816;12.828;2022-07-23T04:30:36;97775.91;;;17.18;100.00
30081;BME280;16902;50.816;12.828;2022-07-23T04:35:41;97787.00;;;17.20;100.00
30081;BME280;16902;50.816;12.828;2022-07-23T04:40:50;97775.13;;;17.17;100.00
30081;BME280;16902;50.816;12.828;2022-07-23T04:45:52;97798.94;;;17.23;100.00
30081;BME280;16902;50.816;12.828;2022-07-23T04:50:54;97851.22;;;17.31;100.00
30081;BME280;16902;50.816;12.828;2022-07-23T04:56:01;97816.22;;;17.30;100.00
30081;BME280;16902;50.816;12.828;2022-07-23T05:01:04;97807.38;;;17.25;100.00
30081;BME280;16902;50.816;12.828;2022-07-23T05:06:09;97815.00;;;17.14;100.00
30081;BME280;16902;50.816;12.828;2022-07-23T05:11:10;97805.44;;;17.20;100.00
30081;BME280;16902;50.816;12.828;2022-07-23T05:16:12;97813.50;;;17.07;100.00
30081;BME280;16902;50.816;12.828;2022-07-23T05:21:15;97818.38;;;16.85;100.00
30081;BME280;16902;50.816;12.828;2022-07-23T05:26:18;97825.09;;;16.56;100.00
30081;BME280;16902;50.816;12.828;2022-07-23T05:31:23;97824.03;;;16.63;100.00
30081;BME280;16902;50.816;12.828;2022-07-23T05:36:25;97821.00;;;16.60;100.00
30081;BME280;16902;50.816;12.828;2022-07-23T05:41:30;97827.34;;;16.52;100.00
30081;BME280;16902;50.816;12.828;2022-07-23T05:46:36;97837.84;;;16.77;100.00
30081;BME280;16902;50.816;12.828;2022-07-23T05:51:41;97851.47;;;17.47;100.00
30081;BME280;16902;50.816;12.828;2022-07-23T05:56:47;97868.81;;;18.15;100.00
30081;BME280;16902;50.816;12.828;2022-07-23T06:01:49;97880.41;;;18.26;100.00
30081;BME280;16902;50.816;12.828;2022-07-23T06:06:51;97872.41;;;17.91;100.00
30081;BME280;16902;50.816;12.828;2022-07-23T06:11:53;97893.19;;;17.62;100.00
30081;BME280;16902;50.816;12.828;2022-07-23T06:16:54;97884.06;;;17.65;100.00
30081;BME280;16902;50.816;12.828;2022-07-23T06:21:57;97878.50;;;18.03;100.00
30081;BME280;16902;50.816;12.828;2022-07-23T06:27:01;97884.50;;;18.10;100.00
30081;BME280;16902;50.816;12.828;2022-07-23T06:32:04;97892.59;;;18.50;100.00
30081;BME280;16902;50.816;12.828;2022-07-23T06:37:06;97874.44;;;18.19;100.00
30081;BME280;16902;50.816;12.828;2022-07-23T06:42:08;97894.44;;;18.50;100.00
30081;BME280;16902;50.816;12.828;2022-07-23T06:47:12;97895.47;;;18.49;100.00
30081;BME280;16902;50.816;12.828;2022-07-23T06:52:15;97900.00;;;18.30;100.00
30081;BME280;16902;50.816;12.828;2022-07-23T06:57:17;97903.94;;;18.51;100.00
30081;BME280;16902;50.816;12.828;2022-07-23T07:02:19;97910.66;;;19.12;100.00
30081;BME280;16902;50.816;12.828;2022-07-23T07:07:21;97894.59;;;19.25;100.00
30081;BME280;16902;50.816;12.828;2022-07-23T07:12:23;97890.47;;;19.30;100.00
30081;BME280;16902;50.816;12.828;2022-07-23T07:17:25;97883.81;;;19.04;100.00
30081;BME280;16902;50.816;12.828;2022-07-23T07:22:26;97889.66;;;18.70;100.00
30081;BME280;16902;50.816;12.828;2022-07-23T07:27:28;97860.75;;;18.99;100.00
30081;BME280;16902;50.816;12.828;2022-07-23T07:32:30;97878.69;;;19.61;100.00
30081;BME280;16902;50.816;12.828;2022-07-23T07:37:53;97875.63;;;19.40;100.00
30081;BME280;16902;50.816;12.828;2022-07-23T07:42:55;97880.13;;;19.05;100.00
30081;BME280;16902;50.816;12.828;2022-07-23T07:47:58;97876.25;;;19.99;100.00
30081;BME280;16902;50.816;12.828;2022-07-23T07:52:59;97871.78;;;21.18;100.00
30081;BME280;16902;50.816;12.828;2022-07-23T07:58:02;97878.94;;;21.22;100.00
30081;BME280;16902;50.816;12.828;2022-07-23T08:03:05;97885.22;;;21.77;100.00
30081;BME280;16902;50.816;12.828;2022-07-23T08:08:06;97870.91;;;21.78;100.00
30081;BME280;16902;50.816;12.828;2022-07-23T08:13:15;97875.59;;;21.71;100.00
30081;BME280;16902;50.816;12.828;2022-07-23T08:18:17;97869.59;;;21.53;100.00
30081;BME280;16902;50.816;12.828;2022-07-23T08:23:18;97871.31;;;21.43;100.00
30081;BME280;16902;50.816;12.828;2022-07-23T08:28:21;97887.03;;;21.71;100.00
30081;BME280;16902;50.816;12.828;2022-07-23T08:38:34;97873.78;;;22.57;100.00
30081;BME280;16902;50.816;12.828;2022-07-23T08:43:37;97876.22;;;22.05;100.00
30081;BME280;16902;50.816;12.828;2022-07-23T08:48:39;97886.59;;;22.06;100.00
30081;BME280;16902;50.816;12.828;2022-07-23T08:53:41;97897.69;;;21.33;100.00
30081;BME280;16902;50.816;12.828;2022-07-23T08:58:43;97911.03;;;21.87;100.00
30081;BME280;16902;50.816;12.828;2022-07-23T09:03:45;97927.81;;;22.78;100.00
30081;BME280;16902;50.816;12.828;2022-07-23T09:08:47;97921.00;;;23.82;100.00
30081;BME280;16902;50.816;12.828;2022-07-23T09:13:53;97922.41;;;24.21;100.00
30081;BME280;16902;50.816;12.828;2022-07-23T09:19:03;97945.63;;;24.41;100.00
30081;BME280;16902;50.816;12.828;2022-07-23T09:24:11;97921.00;;;23.82;100.00
30081;BME280;16902;50.816;12.828;2022-07-23T09:29:20;97914.50;;;23.63;100.00
30081;BME280;16902;50.816;12.828;2022-07-23T09:34:30;97925.97;;;24.47;100.00
30081;BME280;16902;50.816;12.828;2022-07-23T09:39:34;97943.50;;;24.94;100.00
30081;BME280;16902;50.816;12.828;2022-07-23T09:44:44;97948.25;;;24.25;100.00
30081;BME280;16902;50.816;12.828;2022-07-23T09:55:04;97950.63;;;25.54;100.00
30081;BME280;16902;50.816;12.828;2022-07-23T10:00:08;97944.50;;;26.13;100.00
30081;BME280;16902;50.816;12.828;2022-07-23T10:05:12;97952.16;;;27.57;100.00
30081;BME280;16902;50.816;12.828;2022-07-23T10:10:36;97954.91;;;26.94;100.00
30081;BME280;16902;50.816;12.828;2022-07-23T10:16:13;97960.22;;;26.15;100.00
30081;BME280;16902;50.816;12.828;2022-07-23T10:21:37;97960.56;;;25.18;100.00
30081;BME280;16902;50.816;12.828;2022-07-23T10:32:44;97970.25;;;23.48;100.00
30081;BME280;16902;50.816;12.828;2022-07-23T10:37:50;97970.41;;;22.62;100.00
30081;BME280;16902;50.816;12.828;2022-07-23T10:42:53;97955.41;;;22.18;100.00
30081;BME280;16902;50.816;12.828;2022-07-23T10:53:17;97948.06;;;21.21;100.00
30081;BME280;16902;50.816;12.828;2022-07-23T10:58:46;97973.19;;;21.35;100.00
30081;BME280;16902;50.816;12.828;2022-07-23T11:03:57;97984.94;;;22.54;100.00
30081;BME280;16902;50.816;12.828;2022-07-23T11:15:07;97991.44;;;22.95;100.00
30081;BME280;16902;50.816;12.828;2022-07-23T11:25:31;97991.94;;;22.65;100.00
30081;BME280;16902;50.816;12.828;2022-07-23T11:30:45;97998.53;;;23.64;100.00
30081;BME280;16902;50.816;12.828;2022-07-23T11:36:02;97998.06;;;27.64;100.00
30081;BME280;16902;50.816;12.828;2022-07-23T11:41:05;98005.72;;;29.59;100.00
30081;BME280;16902;50.816;12.828;2022-07-23T11:46:09;98000.09;;;28.77;100.00
30081;BME280;16902;50.816;12.828;2022-07-23T11:51:24;98002.09;;;28.85;100.00
30081;BME280;16902;50.816;12.828;2022-07-23T11:56:27;98006.03;;;30.35;100.00
30081;BME280;16902;50.816;12.828;2022-07-23T12:01:29;97995.06;;;33.02;98.81
30081;BME280;16902;50.816;12.828;2022-07-23T12:06:37;97997.22;;;31.87;100.00
30081;BME280;16902;50.816;12.828;2022-07-23T12:11:59;97988.50;;;31.90;99.27
30081;BME280;16902;50.816;12.828;2022-07-23T12:17:10;97998.66;;;33.70;88.25
30081;BME280;16902;50.816;12.828;2022-07-23T12:22:12;97997.69;;;31.89;93.53
30081;BME280;16902;50.816;12.828;2022-07-23T12:27:20;97994.97;;;28.61;100.00
30081;BME280;16902;50.816;12.828;2022-07-23T12:37:35;97973.91;;;26.53;100.00
30081;BME280;16902;50.816;12.828;2022-07-23T12:42:43;97966.88;;;25.43;100.00
30081;BME280;16902;50.816;12.828;2022-07-23T12:48:04;97978.16;;;26.88;100.00
30081;BME280;16902;50.816;12.828;2022-07-23T12:53:11;97982.88;;;26.23;100.00
30081;BME280;16902;50.816;12.828;2022-07-23T12:58:20;97984.38;;;26.44;100.00
30081;BME280;16902;50.816;12.828;2022-07-23T13:03:39;97978.91;;;26.15;100.00
30081;BME280;16902;50.816;12.828;2022-07-23T13:08:41;97977.94;;;25.96;100.00
30081;BME280;16902;50.816;12.828;2022-07-23T13:13:47;97991.34;;;26.40;100.00
30081;BME280;16902;50.816;12.828;2022-07-23T13:18:50;97997.19;;;28.16;100.00
30081;BME280;16902;50.816;12.828;2022-07-23T13:23:52;97995.19;;;28.46;100.00
30081;BME280;16902;50.816;12.828;2022-07-23T13:28:54;97995.41;;;27.06;100.00
30081;BME280;16902;50.816;12.828;2022-07-23T13:33:56;97994.31;;;26.73;100.00
30081;BME280;16902;50.816;12.828;2022-07-23T13:38:58;97986.78;;;26.46;100.00
30081;BME280;16902;50.816;12.828;2022-07-23T13:44:00;98000.06;;;29.28;100.00
30081;BME280;16902;50.816;12.828;2022-07-23T13:49:03;97990.56;;;27.66;100.00
30081;BME280;16902;50.816;12.828;2022-07-23T13:54:07;97992.34;;;26.88;100.00
30081;BME280;16902;50.816;12.828;2022-07-23T13:59:09;97989.94;;;26.87;100.00
30081;BME280;16902;50.816;12.828;2022-07-23T14:04:12;97990.06;;;27.06;100.00
30081;BME280;16902;50.816;12.828;2022-07-23T14:09:15;97990.22;;;26.51;100.00
30081;BME280;16902;50.816;12.828;2022-07-23T14:14:17;97992.78;;;26.67;100.00
30081;BME280;16902;50.816;12.828;2022-07-23T14:19:19;98007.16;;;28.54;100.00
30081;BME280;16902;50.816;12.828;2022-07-23T14:24:21;98010.34;;;31.26;91.85
30081;BME280;16902;50.816;12.828;2022-07-23T14:29:23;98012.34;;;34.54;72.04
30081;BME280;16902;50.816;12.828;2022-07-23T14:34:25;98002.06;;;32.77;75.96
30081;BME280;16902;50.816;12.828;2022-07-23T14:39:28;97999.19;;;29.33;94.63
30081;BME280;16902;50.816;12.828;2022-07-23T14:44:31;97995.88;;;27.71;100.00
30081;BME280;16902;50.816;12.828;2022-07-23T14:49:34;98005.28;;;27.05;100.00
30081;BME280;16902;50.816;12.828;2022-07-23T14:54:35;97999.69;;;27.02;100.00
30081;BME280;16902;50.816;12.828;2022-07-23T14:59:38;98004.56;;;26.60;100.00
30081;BME280;16902;50.816;12.828;2022-07-23T15:04:41;98000.06;;;25.96;100.00
30081;BME280;16902;50.816;12.828;2022-07-23T15:09:43;98006.94;;;28.50;100.00
30081;BME280;16902;50.816;12.828;2022-07-23T15:14:45;98005.28;;;35.27;69.82
30081;BME280;16902;50.816;12.828;2022-07-23T15:19:48;98017.31;;;38.93;56.90
30081;BME280;16902;50.816;12.828;2022-07-23T15:24:50;98028.78;;;37.46;53.00
30081;BME280;16902;50.816;12.828;2022-07-23T15:29:52;98015.03;;;35.08;57.20
30081;BME280;16902;50.816;12.828;2022-07-23T15:34:54;98008.72;;;32.96;66.83
30081;BME280;16902;50.816;12.828;2022-07-23T15:39:55;98006.63;;;32.33;67.34
30081;BME280;16902;50.816;12.828;2022-07-23T15:44:58;98005.91;;;30.99;75.28
30081;BME280;16902;50.816;12.828;2022-07-23T15:49:59;97998.31;;;29.92;82.41
30081;BME280;16902;50.816;12.828;2022-07-23T15:55:02;97999.03;;;28.59;88.46
30081;BME280;16902;50.816;12.828;2022-07-23T16:00:06;97988.88;;;27.70;98.77
30081;BME280;16902;50.816;12.828;2022-07-23T16:05:09;97979.41;;;26.67;100.00
30081;BME280;16902;50.816;12.828;2022-07-23T16:10:11;97980.41;;;25.72;100.00
30081;BME280;16902;50.816;12.828;2022-07-23T16:15:14;97985.31;;;25.44;100.00
30081;BME280;16902;50.816;12.828;2022-07-23T16:20:16;97982.13;;;25.22;100.00
30081;BME280;16902;50.816;12.828;2022-07-23T16:25:17;97972.81;;;24.53;100.00
30081;BME280;16902;50.816;12.828;2022-07-23T16:30:19;97971.16;;;24.36;100.00
30081;BME280;16902;50.816;12.828;2022-07-23T16:35:21;97975.25;;;23.87;100.00
30081;BME280;16902;50.816;12.828;2022-07-23T16:40:25;97972.91;;;23.95;100.00
30081;BME280;16902;50.816;12.828;2022-07-23T16:45:28;97979.44;;;23.67;100.00
30081;BME280;16902;50.816;12.828;2022-07-23T16:50:29;97980.38;;;23.51;100.00
30081;BME280;16902;50.816;12.828;2022-07-23T16:55:31;97982.47;;;23.49;100.00
30081;BME280;16902;50.816;12.828;2022-07-23T17:00:33;97989.97;;;23.15;100.00
30081;BME280;16902;50.816;12.828;2022-07-23T17:05:34;97993.53;;;22.93;100.00
30081;BME280;16902;50.816;12.828;2022-07-23T17:10:36;97999.09;;;22.92;100.00
30081;BME280;16902;50.816;12.828;2022-07-23T17:15:38;97996.84;;;22.78;100.00
30081;BME280;16902;50.816;12.828;2022-07-23T17:20:40;97999.47;;;22.73;100.00
30081;BME280;16902;50.816;12.828;2022-07-23T17:25:42;97992.13;;;22.53;100.00
30081;BME280;16902;50.816;12.828;2022-07-23T17:30:45;97996.59;;;22.53;100.00
30081;BME280;16902;50.816;12.828;2022-07-23T17:35:46;98000.09;;;22.31;100.00
30081;BME280;16902;50.816;12.828;2022-07-23T17:40:50;98004.00;;;22.24;100.00
30081;BME280;16902;50.816;12.828;2022-07-23T17:45:52;98005.38;;;22.10;100.00
30081;BME280;16902;50.816;12.828;2022-07-23T17:50:54;98017.06;;;21.87;100.00
30081;BME280;16902;50.816;12.828;2022-07-23T17:55:57;98013.59;;;21.64;100.00
30081;BME280;16902;50.816;12.828;2022-07-23T18:01:02;98019.50;;;21.33;100.00
30081;BME280;16902;50.816;12.828;2022-07-23T18:06:05;98014.28;;;21.04;100.00
30081;BME280;16902;50.816;12.828;2022-07-23T18:11:07;98009.75;;;20.88;100.00
30081;BME280;16902;50.816;12.828;2022-07-23T18:16:08;98014.97;;;20.66;100.00
30081;BME280;16902;50.816;12.828;2022-07-23T18:21:10;98011.78;;;20.52;100.00
30081;BME280;16902;50.816;12.828;2022-07-23T18:26:12;98017.00;;;20.35;100.00
30081;BME280;16902;50.816;12.828;2022-07-23T18:31:15;98014.22;;;20.01;100.00
30081;BME280;16902;50.816;12.828;2022-07-23T18:36:17;98022.78;;;19.80;100.00
30081;BME280;16902;50.816;12.828;2022-07-23T18:41:21;98027.41;;;19.61;100.00
30081;BME280;16902;50.816;12.828;2022-07-23T18:46:22;98032.88;;;19.48;100.00
30081;BME280;16902;50.816;12.828;2022-07-23T18:51:24;98033.91;;;19.23;100.00
30081;BME280;16902;50.816;12.828;2022-07-23T18:56:28;98042.16;;;19.04;100.00
30081;BME280;16902;50.816;12.828;2022-07-23T19:01:30;98041.47;;;18.96;100.00
30081;BME280;16902;50.816;12.828;2022-07-23T19:06:32;98047.03;;;18.77;100.00
30081;BME280;16902;50.816;12.828;2022-07-23T19:11:33;98054.22;;;18.51;100.00
30081;BME280;16902;50.816;12.828;2022-07-23T19:16:35;98051.66;;;18.14;100.00
30081;BME280;16902;50.816;12.828;2022-07-23T19:21:37;98065.91;;;17.88;100.00
30081;BME280;16902;50.816;12.828;2022-07-23T19:26:39;98076.47;;;17.63;100.00
30081;BME280;16902;50.816;12.828;2022-07-23T19:31:41;98082.72;;;17.44;100.00
30081;BME280;16902;50.816;12.828;2022-07-23T19:36:42;98080.25;;;17.24;100.00
30081;BME280;16902;50.816;12.828;2022-07-23T19:41:44;98090.91;;;17.04;100.00
30081;BME280;16902;50.816;12.828;2022-07-23T19:46:46;98093.44;;;16.86;100.00
30081;BME280;16902;50.816;12.828;2022-07-23T19:51:47;98096.47;;;16.89;100.00
30081;BME280;16902;50.816;12.828;2022-07-23T19:56:49;98106.84;;;16.71;100.00
30081;BME280;16902;50.816;12.828;2022-07-23T20:01:51;98109.00;;;16.49;100.00
30081;BME280;16902;50.816;12.828;2022-07-23T20:06:53;98108.25;;;16.29;100.00
30081;BME280;16902;50.816;12.828;2022-07-23T20:11:54;98122.63;;;16.19;100.00
30081;BME280;16902;50.816;12.828;2022-07-23T20:16:56;98121.03;;;16.12;100.00
30081;BME280;16902;50.816;12.828;2022-07-23T20:21:58;98126.53;;;15.97;100.00
30081;BME280;16902;50.816;12.828;2022-07-23T20:26:59;98136.84;;;15.79;100.00
30081;BME280;16902;50.816;12.828;2022-07-23T20:32:01;98135.44;;;15.70;100.00
30081;BME280;16902;50.816;12.828;2022-07-23T20:37:03;98137.63;;;15.59;100.00
30081;BME280;16902;50.816;12.828;2022-07-23T20:42:04;98146.28;;;15.47;100.00
30081;BME280;16902;50.816;12.828;2022-07-23T20:47:06;98149.75;;;15.34;100.00
30081;BME280;16902;50.816;12.828;2022-07-23T20:52:08;98160.41;;;15.26;100.00
30081;BME280;16902;50.816;12.828;2022-07-23T20:57:10;98165.84;;;15.17;100.00
30081;BME280;16902;50.816;12.828;2022-07-23T21:02:11;98167.03;;;15.08;100.00
30081;BME280;16902;50.816;12.828;2022-07-23T21:07:13;98175.50;;;15.04;100.00
30081;BME280;16902;50.816;12.828;2022-07-23T21:12:19;98174.25;;;14.93;100.00
30081;BME280;16902;50.816;12.828;2022-07-23T21:17:21;98172.03;;;14.90;100.00
30081;BME280;16902;50.816;12.828;2022-07-23T21:22:23;98176.25;;;14.84;100.00
30081;BME280;16902;50.816;12.828;2022-07-23T21:27:24;98179.03;;;14.76;100.00
30081;BME280;16902;50.816;12.828;2022-07-23T21:32:26;98188.06;;;14.67;100.00
30081;BME280;16902;50.816;12.828;2022-07-23T21:37:28;98183.19;;;14.57;100.00
30081;BME280;16902;50.816;12.828;2022-07-23T21:42:30;98182.59;;;14.55;100.00
30081;BME280;16902;50.816;12.828;2022-07-23T21:47:32;98193.66;;;14.51;100.00
30081;BME280;16902;50.816;12.828;2022-07-23T21:52:34;98193.31;;;14.32;100.00
30081;BME280;16902;50.816;12.828;2022-07-23T21:57:36;98193.66;;;14.23;100.00
30081;BME280;16902;50.816;12.828;2022-07-23T22:02:38;98194.66;;;14.22;100.00
30081;BME280;16902;50.816;12.828;2022-07-23T22:07:40;98195.25;;;14.17;100.00
30081;BME280;16902;50.816;12.828;2022-07-23T22:12:42;98196.19;;;14.09;100.00
30081;BME280;16902;50.816;12.828;2022-07-23T22:17:45;98208.00;;;13.99;100.00
30081;BME280;16902;50.816;12.828;2022-07-23T22:22:48;98207.69;;;13.87;100.00
30081;BME280;16902;50.816;12.828;2022-07-23T22:27:52;98204.78;;;13.75;100.00
30081;BME280;16902;50.816;12.828;2022-07-23T22:32:53;98206.53;;;13.68;100.00
30081;BME280;16902;50.816;12.828;2022-07-23T22:37:55;98211.38;;;13.71;100.00
30081;BME280;16902;50.816;12.828;2022-07-23T22:42:57;98204.06;;;13.60;100.00
30081;BME280;16902;50.816;12.828;2022-07-23T22:47:59;98217.94;;;13.60;100.00
30081;BME280;16902;50.816;12.828;2022-07-23T22:53:01;98216.25;;;13.53;100.00
30081;BME280;16902;50.816;12.828;2022-07-23T22:58:03;98214.38;;;13.47;100.00
30081;BME280;16902;50.816;12.828;2022-07-23T23:03:05;98218.31;;;13.36;100.00
30081;BME280;16902;50.816;12.828;2022-07-23T23:08:07;98221.84;;;13.28;100.00
30081;BME280;16902;50.816;12.828;2022-07-23T23:13:09;98217.53;;;13.21;100.00
30081;BME280;16902;50.816;12.828;2022-07-23T23:18:15;98213.84;;;13.15;100.00
30081;BME280;16902;50.816;12.828;2022-07-23T23:23:17;98215.38;;;13.09;100.00
30081;BME280;16902;50.816;12.828;2022-07-23T23:28:19;98213.59;;;12.95;100.00
30081;BME280;16902;50.816;12.828;2022-07-23T23:33:21;98223.44;;;12.93;100.00
30081;BME280;16902;50.816;12.828;2022-07-23T23:38:23;98223.19;;;12.88;100.00
30081;BME280;16902;50.816;12.828;2022-07-23T23:43:24;98228.94;;;12.83;100.00
30081;BME280;16902;50.816;12.828;2022-07-23T23:48:26;98227.69;;;12.79;100.00
30081;BME280;16902;50.816;12.828;2022-07-23T23:53:28;98227.63;;;12.73;100.00
30081;BME280;16902;50.816;12.828;2022-07-23T23:58:30;98229.16;;;12.67;100.00
